Time;durP1;ratioP1;P1;durP2;ratioP2;P2;SDS_P1;SDS_P2;PMS_P1;PMS_P2;Temp;Humidity;BMP_temperature;BMP_pressure;BME280_temperature;BME280_humidity;BME280_pressure;Samples;Min_cycle;Max_cycle;Signal;HPM_P1;HPM_P2
2023/11/13 00:02:00;;;;;;;38.28;5.53;;;11.10;99.90;;;;;;5125876;28;20027;-55
2023/11/13 00:04:25;;;;;;;34.45;5.05;;;11.10;99.90;;;;;;5126731;28;20027;-54
2023/11/13 00:06:51;;;;;;;42.15;5.30;;;11.10;99.90;;;;;;5126716;28;20039;-55
2023/11/13 00:09:17;;;;;;;41.13;5.43;;;11.10;99.90;;;;;;5126672;28;20031;-55
2023/11/13 00:11:43;;;;;;;33.67;5.30;;;11.10;99.90;;;;;;5126919;28;20062;-55
2023/11/13 00:14:09;;;;;;;29.90;4.63;;;11.20;99.90;;;;;;5126684;28;20030;-55
2023/11/13 00:16:35;;;;;;;41.08;5.47;;;11.20;99.90;;;;;;5126893;28;20024;-55
2023/11/13 00:19:01;;;;;;;35.67;4.85;;;11.20;99.90;;;;;;5127067;28;20042;-54
2023/11/13 00:21:27;;;;;;;35.42;4.80;;;11.20;99.90;;;;;;5125544;28;20077;-56
2023/11/13 00:23:53;;;;;;;41.58;5.95;;;11.20;99.90;;;;;;5125323;28;20031;-53
2023/11/13 00:26:19;;;;;;;34.63;5.75;;;11.20;99.90;;;;;;5126683;28;20185;-54
2023/11/13 00:28:45;;;;;;;39.53;6.45;;;11.10;99.90;;;;;;5126733;28;20274;-54
2023/11/13 00:31:13;;;;;;;34.47;5.30;;;11.20;99.90;;;;;;5126695;28;20042;-53
2023/11/13 00:33:38;;;;;;;42.55;5.47;;;11.10;99.90;;;;;;5126336;28;20015;-54
2023/11/13 00:36:06;;;;;;;31.17;5.13;;;11.10;99.90;;;;;;5125268;28;20024;-54
2023/11/13 00:38:32;;;;;;;33.13;6.40;;;11.10;99.90;;;;;;5126466;28;20028;-54
2023/11/13 00:40:58;;;;;;;39.03;5.22;;;11.10;99.90;;;;;;5125503;28;20038;-53
2023/11/13 00:43:24;;;;;;;43.90;6.20;;;11.10;99.90;;;;;;5126338;28;20027;-54
2023/11/13 00:45:50;;;;;;;41.95;7.03;;;11.10;99.90;;;;;;5126406;28;20296;-53
2023/11/13 00:48:17;;;;;;;39.00;6.28;;;11.10;99.90;;;;;;5126276;28;20023;-54
2023/11/13 00:50:42;;;;;;;36.90;6.43;;;11.10;99.90;;;;;;5126331;28;20033;-53
2023/11/13 00:53:08;;;;;;;48.20;6.75;;;11.10;99.90;;;;;;5125840;28;20287;-53
2023/11/13 00:55:34;;;;;;;33.13;5.80;;;11.10;99.90;;;;;;5126125;28;20047;-53
2023/11/13 00:57:59;;;;;;;42.40;6.03;;;11.10;99.90;;;;;;5125182;28;20027;-54
2023/11/13 01:00:26;;;;;;;35.38;6.72;;;11.10;99.90;;;;;;5126178;28;20177;-54
2023/11/13 01:02:52;;;;;;;40.78;5.30;;;11.20;99.90;;;;;;5126164;28;20027;-53
2023/11/13 01:05:18;;;;;;;24.85;4.53;;;11.20;99.90;;;;;;5125752;28;20028;-54
2023/11/13 01:07:43;;;;;;;31.45;5.22;;;11.20;99.90;;;;;;5124776;28;20079;-55
2023/11/13 01:10:09;;;;;;;28.83;4.88;;;11.20;99.90;;;;;;5125192;28;20034;-54
2023/11/13 01:12:36;;;;;;;26.40;4.70;;;11.20;99.90;;;;;;5125082;28;20051;-54
2023/11/13 01:15:04;;;;;;;31.30;4.95;;;11.20;99.90;;;;;;5126047;28;20027;-52
2023/11/13 01:17:30;;;;;;;26.77;3.85;;;11.20;99.90;;;;;;5124884;28;20020;-52
2023/11/13 01:19:56;;;;;;;33.80;4.70;;;11.20;99.90;;;;;;5125971;28;20086;-54
2023/11/13 01:22:22;;;;;;;29.15;4.40;;;11.20;99.90;;;;;;5125967;28;20204;-55
2023/11/13 01:24:47;;;;;;;23.15;4.22;;;11.20;99.90;;;;;;5124897;28;20051;-54
2023/11/13 01:27:13;;;;;;;20.08;3.20;;;11.20;99.90;;;;;;5126130;28;20035;-54
2023/11/13 01:29:39;;;;;;;21.75;3.63;;;11.20;99.90;;;;;;5126130;28;20272;-54
2023/11/13 01:32:04;;;;;;;29.02;4.35;;;11.20;99.90;;;;;;5125909;28;20311;-55
2023/11/13 01:34:30;;;;;;;29.25;3.50;;;11.20;99.90;;;;;;5125867;28;20043;-54
2023/11/13 01:36:57;;;;;;;33.47;4.10;;;11.20;99.90;;;;;;5128467;28;20194;-55
2023/11/13 01:39:23;;;;;;;20.58;3.15;;;11.20;99.90;;;;;;5130117;28;20174;-55
2023/11/13 01:41:49;;;;;;;24.58;3.55;;;11.20;99.90;;;;;;5129685;28;20071;-55
2023/11/13 01:44:14;;;;;;;22.45;2.88;;;11.20;99.90;;;;;;5129701;28;20039;-54
2023/11/13 01:46:40;;;;;;;21.65;3.58;;;11.20;99.90;;;;;;5128679;28;20031;-55
2023/11/13 01:49:06;;;;;;;17.27;2.65;;;11.20;99.90;;;;;;5128830;28;20027;-55
2023/11/13 01:51:31;;;;;;;14.98;3.20;;;11.20;99.90;;;;;;5129418;28;20027;-55
2023/11/13 01:53:57;;;;;;;21.80;3.33;;;11.20;99.90;;;;;;5111590;28;20020;-54
2023/11/13 01:56:27;;;;;;;24.10;3.67;;;11.20;99.90;;;;;;5129302;28;20027;-53
2023/11/13 01:58:56;;;;;;;;;;;11.20;99.90;;;;;;5129065;28;20181;-54
2023/11/13 02:01:25;;;;;;;18.35;3.30;;;11.20;99.90;;;;;;5129239;28;19908;-53
2023/11/13 02:03:52;;;;;;;21.08;2.75;;;11.20;99.90;;;;;;5128411;28;20023;-53
2023/11/13 02:06:18;;;;;;;20.05;3.08;;;11.20;99.90;;;;;;5129145;28;20028;-53
2023/11/13 02:08:44;;;;;;;16.85;3.58;;;11.20;99.90;;;;;;5129433;28;20036;-52
2023/11/13 02:11:10;;;;;;;20.55;2.45;;;11.20;99.90;;;;;;5129306;28;20257;-55
2023/11/13 02:13:36;;;;;;;14.45;3.08;;;11.20;99.90;;;;;;5111530;28;20036;-53
2023/11/13 02:16:02;;;;;;;15.48;2.55;;;11.20;99.90;;;;;;5128104;28;20049;-54
2023/11/13 02:18:28;;;;;;;11.70;2.20;;;11.20;99.90;;;;;;5129318;28;20091;-54
2023/11/13 02:20:56;;;;;;;16.80;2.75;;;11.30;99.90;;;;;;5129169;28;20028;-54
2023/11/13 02:23:22;;;;;;;12.60;2.38;;;11.30;99.90;;;;;;5127927;28;20031;-54
2023/11/13 02:25:50;;;;;;;19.08;2.60;;;11.20;99.90;;;;;;5127712;28;20106;-53
2023/11/13 02:28:16;;;;;;;12.57;2.10;;;11.20;99.90;;;;;;5110826;28;20085;-53
2023/11/13 02:30:42;;;;;;;16.70;2.58;;;11.20;99.90;;;;;;5128967;28;20027;-52
2023/11/13 02:33:07;;;;;;;13.25;2.47;;;11.20;99.90;;;;;;5128937;28;20038;-53
2023/11/13 02:35:33;;;;;;;15.73;2.72;;;11.20;99.90;;;;;;5128925;28;20093;-54
2023/11/13 02:37:59;;;;;;;12.80;2.50;;;11.20;99.90;;;;;;5128680;28;20019;-55
2023/11/13 02:40:25;;;;;;;17.40;3.13;;;11.20;99.90;;;;;;5128835;28;20027;-54
2023/11/13 02:42:51;;;;;;;9.52;2.45;;;11.20;99.90;;;;;;5110722;28;20028;-55
2023/11/13 02:45:17;;;;;;;16.23;3.08;;;11.10;99.90;;;;;;5127728;28;20051;-54
2023/11/13 02:47:42;;;;;;;16.70;2.75;;;11.10;99.90;;;;;;5127283;28;20032;-55
2023/11/13 02:50:10;;;;;;;15.32;2.72;;;11.10;99.90;;;;;;5128495;28;20030;-54
2023/11/13 02:52:36;;;;;;;12.95;2.08;;;11.10;99.90;;;;;;5128490;28;20019;-55
2023/11/13 02:55:02;;;;;;;12.32;2.28;;;11.00;99.90;;;;;;5127328;28;20035;-55
2023/11/13 02:57:27;;;;;;;13.95;2.17;;;11.00;99.90;;;;;;5128259;28;20084;-54
2023/11/13 02:59:53;;;;;;;18.67;2.47;;;11.00;99.90;;;;;;5128185;28;20019;-54
2023/11/13 03:02:19;;;;;;;16.23;2.22;;;11.00;99.90;;;;;;5128314;28;20077;-55
2023/11/13 03:04:45;;;;;;;14.15;2.03;;;11.00;99.90;;;;;;5128625;28;20035;-54
2023/11/13 03:07:10;;;;;;;7.25;1.58;;;11.10;99.90;;;;;;5128100;28;20339;-56
2023/11/13 03:09:36;;;;;;;8.70;1.65;;;11.10;99.90;;;;;;5127957;28;20039;-55
2023/11/13 03:12:02;;;;;;;11.95;1.48;;;11.20;99.90;;;;;;5128208;28;20181;-55
2023/11/13 03:14:28;;;;;;;7.10;1.48;;;11.20;99.90;;;;;;5128174;28;20031;-55
2023/11/13 03:16:53;;;;;;;4.80;1.40;;;11.10;99.90;;;;;;5110050;28;20059;-56
2023/11/13 03:19:21;;;;;;;13.10;1.60;;;11.10;99.90;;;;;;5127688;28;20103;-56
2023/11/13 03:21:47;;;;;;;5.85;1.15;;;11.10;99.90;;;;;;5127751;28;20072;-54
2023/11/13 03:24:13;;;;;;;5.25;1.02;;;11.10;99.90;;;;;;5127792;28;20031;-55
2023/11/13 03:26:38;;;;;;;3.00;1.00;;;11.20;99.90;;;;;;5127865;28;20031;-55
2023/11/13 03:29:04;;;;;;;8.05;1.13;;;11.10;99.90;;;;;;5127797;28;20035;-56
2023/11/13 03:31:30;;;;;;;5.13;1.00;;;11.20;99.90;;;;;;5126606;28;20027;-56
2023/11/13 03:33:56;;;;;;;4.03;1.08;;;11.20;99.90;;;;;;5127457;28;20050;-56
2023/11/13 03:36:22;;;;;;;3.85;1.00;;;11.20;99.90;;;;;;5109850;28;20043;-56
2023/11/13 03:38:47;;;;;;;7.40;1.33;;;11.20;99.90;;;;;;5127668;28;20032;-55
2023/11/13 03:41:13;;;;;;;5.85;1.20;;;11.20;99.90;;;;;;5126493;28;20047;-55
2023/11/13 03:43:39;;;;;;;2.95;1.23;;;11.30;99.90;;;;;;5126621;28;20104;-55
2023/11/13 03:46:05;;;;;;;2.20;0.70;;;11.40;99.90;;;;;;5127461;28;20289;-56
2023/11/13 03:48:31;;;;;;;4.22;1.38;;;11.40;99.90;;;;;;5126924;28;20023;-55
2023/11/13 03:50:56;;;;;;;2.83;0.73;;;11.40;99.90;;;;;;5127377;28;20031;-54
2023/11/13 03:53:22;;;;;;;2.10;0.70;;;11.40;99.90;;;;;;5126038;28;20058;-58
2023/11/13 03:55:48;;;;;;;3.50;0.85;;;11.40;99.90;;;;;;5125938;28;20050;-53
2023/11/13 03:58:13;;;;;;;2.50;0.80;;;11.30;99.90;;;;;;5125503;28;20076;-53
2023/11/13 04:00:39;;;;;;;3.83;0.70;;;11.30;99.90;;;;;;5127153;28;20289;-55
2023/11/13 04:03:05;;;;;;;1.75;0.70;;;11.30;99.90;;;;;;5126680;28;20031;-54
2023/11/13 04:05:31;;;;;;;1.55;0.65;;;11.30;99.90;;;;;;5125833;28;20039;-54
2023/11/13 04:07:57;;;;;;;2.97;0.80;;;11.40;99.90;;;;;;5126801;28;20055;-56
2023/11/13 04:10:23;;;;;;;1.90;0.70;;;11.50;99.90;;;;;;5127185;28;20192;-52
2023/11/13 04:12:50;;;;;;;1.00;0.63;;;11.30;99.90;;;;;;5126066;28;20084;-55
2023/11/13 04:15:15;;;;;;;2.30;0.60;;;11.30;99.90;;;;;;5126884;28;20244;-53
2023/11/13 04:17:41;;;;;;;3.50;0.80;;;11.30;99.90;;;;;;5126857;28;20028;-54
2023/11/13 04:20:12;;;;;;;0.82;0.60;;;11.30;99.90;;;;;;5125649;28;20024;-54
2023/11/13 04:22:38;;;;;;;0.77;0.55;;;11.30;99.90;;;;;;5126761;28;20030;-55
2023/11/13 04:25:04;;;;;;;1.38;0.50;;;11.30;99.90;;;;;;5126968;28;20400;-55
2023/11/13 04:27:29;;;;;;;1.20;0.75;;;11.30;99.90;;;;;;5126620;28;20107;-55
2023/11/13 04:29:56;;;;;;;1.33;0.60;;;11.20;99.90;;;;;;5126663;28;20245;-54
2023/11/13 04:32:23;;;;;;;0.98;0.60;;;11.20;99.90;;;;;;5126575;28;20163;-51
2023/11/13 04:34:49;;;;;;;1.40;0.52;;;11.20;99.90;;;;;;5126588;28;20019;-53
2023/11/13 04:37:15;;;;;;;0.98;0.50;;;11.20;99.90;;;;;;5126669;28;20086;-53
2023/11/13 04:39:40;;;;;;;0.50;0.50;;;11.20;99.90;;;;;;5126534;28;20058;-53
2023/11/13 04:42:06;;;;;;;1.00;0.50;;;11.20;99.90;;;;;;5125325;28;20023;-53
2023/11/13 04:44:32;;;;;;;0.45;0.45;;;11.30;99.90;;;;;;5126572;28;20297;-53
2023/11/13 04:46:58;;;;;;;0.50;0.50;;;11.50;99.90;;;;;;5126404;28;20035;-54
2023/11/13 04:49:24;;;;;;;0.60;0.60;;;11.50;99.90;;;;;;5125142;28;20281;-53
2023/11/13 04:51:50;;;;;;;0.50;0.50;;;11.50;99.90;;;;;;5126315;28;20177;-53
2023/11/13 04:54:16;;;;;;;0.50;0.50;;;11.50;99.90;;;;;;5126161;28;20027;-54
2023/11/13 04:56:42;;;;;;;1.98;0.60;;;11.40;99.90;;;;;;5125361;28;20193;-53
2023/11/13 04:59:09;;;;;;;0.68;0.60;;;11.40;99.90;;;;;;5126326;28;20027;-55
2023/11/13 05:01:39;;;;;;;0.57;0.50;;;11.40;99.90;;;;;;5125978;28;20233;-53
2023/11/13 05:04:08;;;;;;;;;;;11.50;99.90;;;;;;5126750;28;20029;-53
2023/11/13 05:06:35;;;;;;;1.52;0.52;;;11.40;99.90;;;;;;5125879;28;19923;-54
2023/11/13 05:09:03;;;;;;;0.75;0.50;;;11.30;99.90;;;;;;5125976;28;20055;-54
2023/11/13 05:11:29;;;;;;;0.50;0.50;;;11.30;99.90;;;;;;5130161;28;20023;-52
2023/11/13 05:13:55;;;;;;;0.68;0.60;;;11.20;99.90;;;;;;5130498;28;20241;-53
2023/11/13 05:16:22;;;;;;;0.52;0.50;;;11.20;99.90;;;;;;5130350;28;20065;-53
2023/11/13 05:18:48;;;;;;;1.45;0.50;;;11.40;99.90;;;;;;5129461;28;20210;-53
2023/11/13 05:21:14;;;;;;;1.17;0.50;;;12.00;99.90;;;;;;5130404;28;20042;-55
2023/11/13 05:23:40;;;;;;;0.50;0.50;;;12.20;99.90;;;;;;5129832;28;20192;-55
2023/11/13 05:26:06;;;;;;;1.40;0.50;;;12.30;99.90;;;;;;5130388;28;20042;-58
2023/11/13 05:28:31;;;;;;;0.95;0.50;;;12.30;99.90;;;;;;5129314;28;20103;-55
2023/11/13 05:30:57;;;;;;;0.52;0.52;;;12.30;99.90;;;;;;5129577;28;20087;-55
2023/11/13 05:33:23;;;;;;;0.50;0.50;;;12.40;99.90;;;;;;5130027;28;20038;-55
2023/11/13 05:35:49;;;;;;;1.25;0.60;;;12.40;99.90;;;;;;5129034;28;20098;-55
2023/11/13 05:38:16;;;;;;;1.25;0.60;;;12.50;99.90;;;;;;5129800;28;20054;-55
2023/11/13 05:40:45;;;;;;;2.05;0.65;;;12.50;99.90;;;;;;5128974;28;20034;-55
2023/11/13 05:43:10;;;;;;;0.93;0.60;;;12.40;99.90;;;;;;5129474;28;20031;-58
2023/11/13 05:45:36;;;;;;;2.13;0.70;;;12.50;99.90;;;;;;5129699;28;20039;-56
2023/11/13 05:48:02;;;;;;;2.80;1.00;;;12.50;99.90;;;;;;5129690;28;20215;-55
2023/11/13 05:50:28;;;;;;;9.40;1.15;;;12.60;99.90;;;;;;5128706;28;20034;-54
2023/11/13 05:52:54;;;;;;;10.88;1.52;;;12.60;99.90;;;;;;5129658;28;20051;-54
2023/11/13 05:55:22;;;;;;;8.50;1.73;;;12.60;99.90;;;;;;5129250;28;20062;-56
2023/11/13 05:57:48;;;;;;;18.63;2.30;;;12.70;99.90;;;;;;5129594;28;20027;-52
2023/11/13 06:00:16;;;;;;;17.60;2.60;;;12.80;99.90;;;;;;5128380;28;20034;-54
2023/11/13 06:02:42;;;;;;;19.48;3.40;;;12.80;99.90;;;;;;5129316;28;20024;-53
2023/11/13 06:05:08;;;;;;;23.92;3.17;;;12.90;99.90;;;;;;5129572;28;20032;-53
2023/11/13 06:07:36;;;;;;;15.05;3.38;;;13.00;99.90;;;;;;5129298;28;20070;-51
2023/11/13 06:10:10;;;;;;;26.58;4.47;;;13.10;99.90;;;;;;5129366;28;20102;-53
2023/11/13 06:12:39;;;;;;;31.17;5.35;;;13.10;99.90;;;;;;5128495;28;20031;-51
2023/11/13 06:15:11;;;;;;;32.53;4.65;;;13.10;99.90;;;;;;5128915;28;20038;-50
2023/11/13 06:17:37;;;;;;;38.58;5.38;;;13.10;99.90;;;;;;5128480;28;20277;-51
2023/11/13 06:20:03;;;;;;;34.90;4.97;;;13.20;99.90;;;;;;5128207;28;20148;-52
2023/11/13 06:22:30;;;;;;;27.05;4.78;;;13.20;99.90;;;;;;5127307;28;20020;-50
2023/11/13 06:24:56;;;;;;;37.42;5.68;;;13.20;99.90;;;;;;5129149;28;20030;-51
2023/11/13 06:27:22;;;;;;;28.85;5.00;;;13.40;99.90;;;;;;5128908;28;20035;-53
2023/11/13 06:29:48;;;;;;;23.80;4.60;;;13.40;99.90;;;;;;5128080;28;20043;-52
2023/11/13 06:32:14;;;;;;;23.58;4.97;;;13.30;99.90;;;;;;5129003;28;20023;-50
2023/11/13 06:34:39;;;;;;;12.18;3.33;;;13.30;99.90;;;;;;5128795;28;20084;-53
2023/11/13 06:37:05;;;;;;;24.52;5.55;;;13.40;99.90;;;;;;5128889;28;20019;-51
2023/11/13 06:39:32;;;;;;;23.95;5.35;;;13.30;99.90;;;;;;5127990;28;20159;-53
2023/11/13 06:41:58;;;;;;;26.75;5.53;;;12.90;99.90;;;;;;5128726;28;20169;-53
2023/11/13 06:44:23;;;;;;;36.50;5.20;;;12.80;99.90;;;;;;5128167;28;20038;-51
2023/11/13 06:46:49;;;;;;;28.77;5.32;;;12.70;99.90;;;;;;5128800;28;20035;-51
2023/11/13 06:49:18;;;;;;;39.42;5.70;;;12.60;99.90;;;;;;5128674;28;20200;-53
2023/11/13 06:51:44;;;;;;;37.33;6.10;;;12.60;99.90;;;;;;5127662;28;20034;-51
2023/11/13 06:54:10;;;;;;;20.85;4.88;;;12.60;99.90;;;;;;5128379;28;20023;-52
2023/11/13 06:56:37;;;;;;;30.75;5.03;;;12.60;99.90;;;;;;5128416;28;20047;-50
2023/11/13 06:59:02;;;;;;;45.50;6.13;;;12.50;99.90;;;;;;5127278;28;20034;-53
2023/11/13 07:01:28;;;;;;;25.90;4.90;;;12.40;99.90;;;;;;5128473;28;20027;-51
2023/11/13 07:03:54;;;;;;;39.08;5.47;;;12.40;99.90;;;;;;5127267;28;20036;-53
2023/11/13 07:06:19;;;;;;;35.03;6.00;;;12.40;99.90;;;;;;5128031;28;20015;-50
2023/11/13 07:08:45;;;;;;;23.75;5.03;;;12.40;99.90;;;;;;5128354;28;20055;-51
2023/11/13 07:11:14;;;;;;;41.13;6.05;;;12.50;99.90;;;;;;5128209;28;20165;-53
2023/11/13 07:13:40;;;;;;;22.40;3.95;;;12.50;99.90;;;;;;5128140;28;20019;-52
2023/11/13 07:16:10;;;;;;;27.23;4.55;;;12.60;99.90;;;;;;5127547;28;20044;-52
2023/11/13 07:18:36;;;;;;;25.90;4.13;;;12.60;99.90;;;;;;5127071;28;20274;-52
2023/11/13 07:21:02;;;;;;;29.20;4.63;;;12.60;99.90;;;;;;5128004;28;20026;-53
2023/11/13 07:23:29;;;;;;;25.20;3.72;;;12.50;99.90;;;;;;5127267;28;20024;-53
2023/11/13 07:25:55;;;;;;;27.08;4.10;;;12.50;99.90;;;;;;5126638;28;20031;-51
2023/11/13 07:28:20;;;;;;;23.23;3.63;;;12.40;99.90;;;;;;5126729;28;20046;-53
2023/11/13 07:30:46;;;;;;;16.83;3.50;;;12.40;99.90;;;;;;5127839;28;20031;-53
2023/11/13 07:33:12;;;;;;;17.90;3.88;;;12.40;99.90;;;;;;5126244;28;20186;-54
2023/11/13 07:35:39;;;;;;;25.20;4.25;;;12.40;99.90;;;;;;5127300;28;20108;-54
2023/11/13 07:38:07;;;;;;;22.27;3.25;;;12.40;99.90;;;;;;5126419;28;20050;-54
2023/11/13 07:40:33;;;;;;;25.65;3.47;;;12.30;99.90;;;;;;5127574;28;20060;-54
2023/11/13 07:42:59;;;;;;;22.88;4.28;;;12.30;99.90;;;;;;5126297;28;20035;-53
2023/11/13 07:45:25;;;;;;;17.10;3.55;;;12.30;99.90;;;;;;5127072;28;20031;-54
2023/11/13 07:47:51;;;;;;;20.08;2.75;;;12.20;99.90;;;;;;5126647;28;20036;-54
2023/11/13 07:50:17;;;;;;;19.80;3.08;;;12.10;99.90;;;;;;5127085;28;20027;-57
2023/11/13 07:52:43;;;;;;;14.93;3.00;;;12.10;99.90;;;;;;5126959;28;20038;-54
2023/11/13 07:55:12;;;;;;;15.55;2.72;;;12.00;99.90;;;;;;5127182;28;20032;-53
2023/11/13 07:57:38;;;;;;;21.90;3.83;;;12.00;99.90;;;;;;5127168;28;20031;-50
2023/11/13 08:00:09;;;;;;;7.70;2.50;;;11.90;99.90;;;;;;5126955;28;20019;-52
2023/11/13 08:02:42;;;;;;;9.30;2.10;;;11.90;99.90;;;;;;5127019;28;20028;-53
2023/11/13 08:05:11;;;;;;;13.23;2.50;;;11.90;99.90;;;;;;5126647;28;20042;-55
2023/11/13 08:07:40;;;;;;;19.48;3.35;;;11.90;99.90;;;;;;5126728;28;20063;-55
2023/11/13 08:10:13;;;;;;;13.13;2.17;;;11.90;99.90;;;;;;5125994;28;20035;-53
2023/11/13 08:12:46;;;;;;;17.27;3.13;;;11.90;99.90;;;;;;5126936;28;20312;-54
2023/11/13 08:15:12;;;;;;;14.85;3.15;;;12.00;99.90;;;;;;5126912;28;20047;-55
2023/11/13 08:17:39;;;;;;;12.02;2.30;;;11.90;99.90;;;;;;5126680;28;20019;-55
2023/11/13 08:20:08;;;;;;;12.50;2.33;;;12.00;99.90;;;;;;5126319;28;20224;-55
2023/11/13 08:22:35;;;;;;;17.27;3.13;;;11.90;99.90;;;;;;5126786;28;20042;-55
2023/11/13 08:25:04;;;;;;;17.67;3.05;;;11.90;99.90;;;;;;5126659;28;20027;-55
2023/11/13 08:27:30;;;;;;;8.88;2.45;;;11.90;99.90;;;;;;5125516;28;20019;-55
2023/11/13 08:29:56;;;;;;;14.00;2.72;;;11.90;99.90;;;;;;5126316;28;20253;-56
2023/11/13 08:32:22;;;;;;;8.52;1.73;;;12.00;99.90;;;;;;5126489;28;20197;-56
2023/11/13 08:34:48;;;;;;;18.42;2.53;;;12.00;99.90;;;;;;5126482;28;20032;-54
2023/11/13 08:37:14;;;;;;;11.63;2.10;;;12.00;99.90;;;;;;5125824;28;20019;-54
2023/11/13 08:39:40;;;;;;;12.65;2.05;;;12.00;99.90;;;;;;5126161;28;20346;-55
2023/11/13 08:42:07;;;;;;;17.55;2.67;;;12.00;99.90;;;;;;5126067;28;20076;-53
2023/11/13 08:44:33;;;;;;;11.45;2.00;;;12.00;99.90;;;;;;5125790;28;20034;-55
2023/11/13 08:46:58;;;;;;;12.73;2.25;;;12.00;99.90;;;;;;5126023;28;20028;-55
2023/11/13 08:49:24;;;;;;;8.38;2.03;;;12.00;99.90;;;;;;5126011;28;20054;-55
2023/11/13 08:51:50;;;;;;;12.20;2.17;;;12.00;99.90;;;;;;5108067;28;20028;-55
2023/11/13 08:54:16;;;;;;;9.23;2.03;;;12.10;99.90;;;;;;5124590;28;20039;-55
2023/11/13 08:56:49;;;;;;;7.57;1.83;;;12.10;99.90;;;;;;5126169;28;20050;-56
2023/11/13 08:59:15;;;;;;;8.07;1.58;;;12.00;99.90;;;;;;5126126;28;20024;-56
2023/11/13 09:01:41;;;;;;;8.43;1.45;;;12.00;99.90;;;;;;5125857;28;20038;-55
2023/11/13 09:04:06;;;;;;;11.85;2.30;;;12.00;99.90;;;;;;5125691;28;20019;-57
2023/11/13 09:06:35;;;;;;;6.13;1.40;;;12.00;99.90;;;;;;5125946;28;20345;-55
2023/11/13 09:09:01;;;;;;;9.27;1.88;;;12.00;99.90;;;;;;5125151;28;20026;-55
2023/11/13 09:11:28;;;;;;;9.40;2.58;;;12.00;99.90;;;;;;5125983;28;20015;-55
2023/11/13 09:13:55;;;;;;;12.88;2.20;;;12.10;99.90;;;;;;5126075;28;20019;-52
2023/11/13 09:16:21;;;;;;;8.43;1.88;;;12.00;99.90;;;;;;5125877;28;20303;-54
2023/11/13 09:18:48;;;;;;;6.57;1.50;;;12.00;99.90;;;;;;5125998;28;20020;-55
2023/11/13 09:21:17;;;;;;;8.68;1.98;;;12.00;99.90;;;;;;5125119;28;20273;-56
2023/11/13 09:23:45;;;;;;;10.45;2.03;;;11.90;99.90;;;;;;5125738;28;20030;-54
2023/11/13 09:26:11;;;;;;;11.35;2.45;;;12.00;99.90;;;;;;5125952;28;20024;-55
2023/11/13 09:28:37;;;;;;;12.95;2.40;;;11.90;99.90;;;;;;5125978;28;20034;-55
2023/11/13 09:31:04;;;;;;;14.13;2.80;;;11.90;99.90;;;;;;5125952;28;20027;-54
2023/11/13 09:33:30;;;;;;;9.13;1.90;;;11.90;99.90;;;;;;5125866;28;20019;-56
2023/11/13 09:35:55;;;;;;;19.38;2.67;;;11.90;99.90;;;;;;5125018;28;20133;-55
2023/11/13 09:38:21;;;;;;;12.05;2.10;;;11.80;99.90;;;;;;5125899;28;20103;-54
2023/11/13 09:40:47;;;;;;;10.32;1.83;;;11.80;99.90;;;;;;5107480;28;20105;-55
2023/11/13 09:43:35;;;;;;;13.02;2.53;;;11.80;99.90;;;;;;5107941;28;20280;-55
2023/11/13 09:46:06;;;;;;;13.40;2.05;;;11.90;99.90;;;;;;5124582;28;20099;-55
2023/11/13 09:48:34;;;;;;;8.57;1.45;;;11.80;99.90;;;;;;5125730;28;20082;-51
2023/11/13 09:51:00;;;;;;;11.00;2.95;;;11.90;99.90;;;;;;5125557;28;20032;-54
2023/11/13 09:53:29;;;;;;;14.82;2.15;;;11.90;99.90;;;;;;5125460;28;20141;-55
2023/11/13 09:55:55;;;;;;;14.30;2.78;;;11.90;99.90;;;;;;5107917;28;20180;-55
2023/11/13 09:58:21;;;;;;;12.77;2.15;;;11.90;99.90;;;;;;5129548;28;20054;-54
2023/11/13 10:00:46;;;;;;;16.75;2.55;;;11.90;99.90;;;;;;5128578;28;20208;-55
2023/11/13 10:03:15;;;;;;;11.73;1.75;;;11.90;99.90;;;;;;5129565;28;20023;-56
2023/11/13 10:05:42;;;;;;;16.50;2.78;;;11.90;99.90;;;;;;5129122;28;20249;-55
2023/11/13 10:08:07;;;;;;;11.05;2.25;;;12.00;99.90;;;;;;5129131;28;20062;-56
2023/11/13 10:10:33;;;;;;;7.05;1.73;;;11.90;99.90;;;;;;5128434;28;20036;-56
2023/11/13 10:13:01;;;;;;;8.00;2.03;;;12.00;99.90;;;;;;5128916;28;20088;-54
2023/11/13 10:15:28;;;;;;;15.32;2.67;;;12.00;99.90;;;;;;5128138;28;20028;-54
2023/11/13 10:17:58;;;;;;;13.20;2.85;;;12.00;99.90;;;;;;5129047;28;20015;-53
2023/11/13 10:20:27;;;;;;;14.38;2.65;;;12.10;99.90;;;;;;5129074;28;20033;-54
2023/11/13 10:23:06;;;;;;;10.33;1.60;;;12.10;99.90;;;;;;5129098;28;20031;-54
2023/11/13 10:25:59;;;;;;;7.03;1.70;;;12.20;99.90;;;;;;5128798;28;20023;-54
2023/11/13 10:28:35;;;;;;;10.63;2.05;;;12.30;99.90;;;;;;5112296;28;20028;-53
2023/11/13 10:31:01;;;;;;;17.20;2.92;;;12.20;99.90;;;;;;5127638;28;20031;-52
2023/11/13 10:33:28;;;;;;;14.55;2.33;;;12.20;99.90;;;;;;5128800;28;20144;-54
2023/11/13 10:35:54;;;;;;;17.10;2.53;;;12.20;99.90;;;;;;5128532;28;20043;-54
2023/11/13 10:38:20;;;;;;;13.70;2.10;;;12.30;99.90;;;;;;5128666;28;20297;-54
2023/11/13 10:41:00;;;;;;;13.63;2.47;;;12.30;99.90;;;;;;5128776;28;20050;-54
2023/11/13 10:43:29;;;;;;;12.80;2.38;;;12.30;99.90;;;;;;5128071;28;20087;-55
2023/11/13 10:45:55;;;;;;;20.23;3.47;;;12.50;99.90;;;;;;5128479;28;20242;-54
2023/11/13 10:48:31;;;;;;;11.50;2.72;;;12.50;99.90;;;;;;5127341;28;20035;-53
2023/11/13 10:50:58;;;;;;;13.25;2.75;;;12.40;99.90;;;;;;5128502;28;20308;-52
2023/11/13 10:53:25;;;;;;;18.45;3.13;;;12.40;99.90;;;;;;5127880;28;20023;-53
2023/11/13 10:55:50;;;;;;;14.38;2.25;;;12.30;99.90;;;;;;5127239;28;20281;-54
2023/11/13 10:58:16;;;;;;;7.63;1.60;;;12.20;99.90;;;;;;5127314;28;20038;-53
2023/11/13 11:00:42;;;;;;;12.82;2.20;;;12.10;99.90;;;;;;5127832;28;20031;-54
2023/11/13 11:03:09;;;;;;;16.58;2.03;;;12.10;99.90;;;;;;5127805;28;20030;-53
2023/11/13 11:05:35;;;;;;;13.38;2.55;;;12.10;99.90;;;;;;5110451;28;20050;-54
2023/11/13 11:08:01;;;;;;;12.35;2.25;;;12.30;99.90;;;;;;5109924;28;20197;-55
2023/11/13 11:10:28;;;;;;;9.95;2.55;;;12.50;99.90;;;;;;5126811;28;20020;-54
2023/11/13 11:13:09;;;;;;;10.00;2.30;;;12.50;99.90;;;;;;5109942;28;20023;-54
2023/11/13 11:15:52;;;;;;;10.93;2.30;;;12.50;99.90;;;;;;5126806;28;20108;-53
2023/11/13 11:18:47;;;;;;;28.10;7.95;;;12.50;99.90;;;;;;5127716;28;20095;-54
2023/11/13 11:21:31;;;;;;;29.38;7.65;;;12.60;99.90;;;;;;5112346;28;20046;-55
2023/11/13 11:24:04;;;;;;;23.00;8.57;;;12.70;99.90;;;;;;5126514;28;20055;-55
2023/11/13 11:26:49;;;;;;;23.67;9.48;;;12.80;99.90;;;;;;5110994;28;20027;-54
2023/11/13 11:29:37;;;;;;;22.58;12.05;;;12.80;99.90;;;;;;5127779;28;20023;-53
2023/11/13 11:32:13;;;;;;;21.83;4.32;;;12.80;99.90;;;;;;5126421;28;20200;-54
2023/11/13 11:34:43;;;;;;;20.85;9.32;;;13.00;99.90;;;;;;5126831;28;20030;-54
2023/11/13 11:37:13;;;;;;;18.88;7.95;;;13.10;99.90;;;;;;5127127;28;20019;-55
2023/11/13 11:39:49;;;;;;;28.20;8.25;;;13.00;99.90;;;;;;5127252;28;20016;-56
2023/11/13 11:42:22;;;;;;;16.30;3.67;;;13.00;99.90;;;;;;5127162;28;20047;-55
2023/11/13 11:44:53;;;;;;;18.88;5.25;;;12.90;99.90;;;;;;5127677;28;20188;-54
2023/11/13 11:47:26;;;;;;;13.52;5.57;;;12.80;99.90;;;;;;5127094;28;20032;-54
2023/11/13 11:49:52;;;;;;;15.98;4.68;;;12.80;99.90;;;;;;5127023;28;20282;-55
2023/11/13 11:52:18;;;;;;;12.68;4.30;;;12.70;99.90;;;;;;5127083;28;20181;-56
2023/11/13 11:54:45;;;;;;;7.82;3.65;;;12.70;99.90;;;;;;5126906;28;20047;-54
2023/11/13 11:57:11;;;;;;;14.65;4.00;;;12.90;99.90;;;;;;5126201;28;20031;-54
2023/11/13 11:59:39;;;;;;;12.77;2.58;;;12.90;99.90;;;;;;5125933;28;20024;-56
2023/11/13 12:02:05;;;;;;;19.88;6.65;;;12.80;99.90;;;;;;5125693;28;20077;-54
2023/11/13 12:04:31;;;;;;;19.25;3.33;;;12.80;99.90;;;;;;5126819;28;20289;-55
2023/11/13 12:07:01;;;;;;;16.20;4.68;;;12.70;99.90;;;;;;5126040;28;20081;-54
2023/11/13 12:09:28;;;;;;;13.73;4.82;;;12.70;99.90;;;;;;5125479;28;20046;-53
2023/11/13 12:11:53;;;;;;;11.35;3.22;;;12.70;99.90;;;;;;5125952;28;20304;-55
2023/11/13 12:14:19;;;;;;;10.82;3.10;;;12.70;99.90;;;;;;5126281;28;20097;-55
2023/11/13 12:16:46;;;;;;;17.42;2.75;;;12.70;99.90;;;;;;5126472;28;20031;-55
2023/11/13 12:19:12;;;;;;;15.80;3.22;;;13.00;99.90;;;;;;5126119;28;20035;-55
2023/11/13 12:21:41;;;;;;;12.93;2.60;;;13.00;99.90;;;;;;5126447;28;20285;-56
2023/11/13 12:24:11;;;;;;;16.03;2.80;;;12.90;99.90;;;;;;5125366;28;20072;-56
2023/11/13 12:26:40;;;;;;;15.88;3.05;;;12.80;99.90;;;;;;5125424;28;20030;-54
2023/11/13 12:29:13;;;;;;;20.03;3.27;;;12.90;99.90;;;;;;5126404;28;20059;-56
2023/11/13 12:31:39;;;;;;;17.55;2.45;;;13.10;99.90;;;;;;5125055;28;20083;-55
2023/11/13 12:34:05;;;;;;;15.57;2.72;;;13.30;99.90;;;;;;5124781;28;20253;-56
2023/11/13 12:36:31;;;;;;;9.38;2.40;;;13.50;99.90;;;;;;5108008;28;20345;-54
2023/11/13 12:38:59;;;;;;;10.15;2.03;;;13.60;99.90;;;;;;5124553;28;20192;-56
2023/11/13 12:41:25;;;;;;;16.05;2.75;;;13.40;99.90;;;;;;5125170;28;20031;-55